createdAt,value
2023-04-16T00:00:57.741Z,1016.03
2023-04-16T00:01:57.837Z,1016.04
2023-04-16T00:03:57.952Z,1016.07
2023-04-16T00:04:57.842Z,1016.05
2023-04-16T00:05:57.855Z,1016.05
2023-04-16T00:06:58.184Z,1016.03
2023-04-16T00:07:57.906Z,1016.06
2023-04-16T00:08:57.948Z,1016.07
2023-04-16T00:09:57.968Z,1016.07
2023-04-16T00:10:57.992Z,1016.08
2023-04-16T00:11:58.054Z,1016.08
2023-04-16T00:12:58.051Z,1016.12
2023-04-16T00:13:58.384Z,1016.10
2023-04-16T00:14:58.115Z,1016.05
2023-04-16T00:16:58.219Z,1016.07
2023-04-16T00:18:58.228Z,1016.04
2023-04-16T00:19:58.255Z,1016.08
2023-04-16T00:21:58.559Z,1016.07
2023-04-16T00:22:58.343Z,1016.04
2023-04-16T00:23:58.374Z,1016.06
2023-04-16T00:24:58.442Z,1016.03
2023-04-16T00:25:58.427Z,1016.03
2023-04-16T00:26:58.462Z,1016.05
2023-04-16T00:27:58.674Z,1016.03
2023-04-16T00:28:58.814Z,1016.01
2023-04-16T00:30:58.624Z,1016.05
2023-04-16T00:31:58.605Z,1016.00
2023-04-16T00:32:58.663Z,1016.07
2023-04-16T00:33:58.668Z,1016.07
2023-04-16T00:34:58.684Z,1016.04
2023-04-16T00:35:59.018Z,1016.07
2023-04-16T00:36:58.744Z,1016.09
2023-04-16T00:37:58.772Z,1016.07
2023-04-16T00:38:58.812Z,1016.08
2023-04-16T00:39:58.837Z,1016.14
2023-04-16T00:40:58.865Z,1016.15
2023-04-16T00:41:58.888Z,1016.08
2023-04-16T00:42:59.240Z,1016.15
2023-04-16T00:43:58.969Z,1016.12
2023-04-16T00:44:58.975Z,1016.10
2023-04-16T00:45:59.053Z,1016.15
2023-04-16T00:46:59.035Z,1016.13
2023-04-16T00:48:00.545Z,1016.13
2023-04-16T00:48:59.088Z,1016.12
2023-04-16T00:49:59.371Z,1016.14
2023-04-16T00:50:59.148Z,1016.13
2023-04-16T00:51:59.178Z,1016.13
2023-04-16T00:52:59.216Z,1016.14
2023-04-16T00:53:59.228Z,1016.16
2023-04-16T00:54:59.263Z,1016.11
2023-04-16T00:55:59.295Z,1016.13
2023-04-16T00:56:59.632Z,1016.17
2023-04-16T00:59:59.425Z,1016.15
2023-04-16T01:00:59.464Z,1016.16
2023-04-16T01:01:59.614Z,1016.14
2023-04-16T01:02:59.638Z,1016.14
2023-04-16T01:03:59.913Z,1016.11
2023-04-16T01:04:59.553Z,1016.14
2023-04-16T01:05:59.597Z,1016.11
2023-04-16T01:06:59.608Z,1016.13
2023-04-16T01:08:59.665Z,1016.15
2023-04-16T01:12:00.074Z,1016.17
2023-04-16T01:12:59.783Z,1016.12
2023-04-16T01:14:00.139Z,1016.14
2023-04-16T01:15:59.900Z,1016.15
2023-04-16T01:16:59.908Z,1016.19
2023-04-16T01:17:59.978Z,1016.20
2023-04-16T01:19:00.369Z,1016.21
2023-04-16T01:19:59.982Z,1016.17
2023-04-16T01:21:00.024Z,1016.20
2023-04-16T01:22:00.382Z,1016.17
2023-04-16T01:23:00.075Z,1016.20
2023-04-16T01:24:00.099Z,1016.20
2023-04-16T01:25:00.275Z,1016.20
2023-04-16T01:26:00.476Z,1016.15
2023-04-16T01:27:00.188Z,1016.21
2023-04-16T01:28:00.217Z,1016.20
2023-04-16T01:29:00.254Z,1016.17
2023-04-16T01:31:00.350Z,1016.19
2023-04-16T01:32:00.458Z,1016.24
2023-04-16T01:33:00.625Z,1016.22
2023-04-16T01:34:00.401Z,1016.23
2023-04-16T01:35:00.531Z,1016.24
2023-04-16T01:36:00.489Z,1016.23
2023-04-16T01:37:00.483Z,1016.27
2023-04-16T01:38:00.503Z,1016.26
2023-04-16T01:39:00.536Z,1016.25
2023-04-16T01:40:00.881Z,1016.24
2023-04-16T01:41:00.592Z,1016.28
2023-04-16T01:42:00.627Z,1016.29
2023-04-16T01:43:00.709Z,1016.31
2023-04-16T01:44:00.671Z,1016.28
2023-04-16T01:45:00.703Z,1016.29
2023-04-16T01:46:00.744Z,1016.28
2023-04-16T01:47:01.117Z,1016.33
2023-04-16T01:48:00.858Z,1016.32
2023-04-16T01:49:00.813Z,1016.33
2023-04-16T01:51:00.885Z,1016.28
2023-04-16T01:52:00.909Z,1016.29
2023-04-16T01:53:00.942Z,1016.28
2023-04-16T01:54:01.327Z,1016.31
2023-04-16T01:55:00.988Z,1016.34
2023-04-16T01:58:01.070Z,1016.37
2023-04-16T01:59:01.112Z,1016.36
2023-04-16T02:00:01.433Z,1016.32
2023-04-16T02:02:01.325Z,1016.35
2023-04-16T02:04:01.340Z,1016.28
2023-04-16T02:05:01.347Z,1016.28
2023-04-16T02:07:01.751Z,1016.34
2023-04-16T02:08:01.448Z,1016.36
2023-04-16T02:09:01.396Z,1016.27
2023-04-16T02:10:01.423Z,1016.29
2023-04-16T02:11:01.442Z,1016.28
2023-04-16T02:12:01.532Z,1016.24
2023-04-16T02:13:01.851Z,1016.29
2023-04-16T02:14:01.605Z,1016.26
2023-04-16T02:15:01.569Z,1016.28
2023-04-16T02:16:01.631Z,1016.29
2023-04-16T02:17:01.618Z,1016.26
2023-04-16T02:18:01.676Z,1016.32
2023-04-16T02:19:01.923Z,1016.30
2023-04-16T02:20:01.826Z,1016.27
2023-04-16T02:21:01.734Z,1016.30
2023-04-16T02:22:01.757Z,1016.31
2023-04-16T02:23:01.808Z,1016.31
2023-04-16T02:24:01.812Z,1016.32
2023-04-16T02:25:01.842Z,1016.31
2023-04-16T02:26:02.176Z,1016.34
2023-04-16T02:27:01.895Z,1016.32
2023-04-16T02:28:01.926Z,1016.31
2023-04-16T02:29:01.989Z,1016.31
2023-04-16T02:30:01.983Z,1016.30
2023-04-16T02:32:02.067Z,1016.38
2023-04-16T02:33:02.412Z,1016.35
2023-04-16T02:34:02.154Z,1016.33
2023-04-16T02:35:02.124Z,1016.31
2023-04-16T02:36:02.177Z,1016.34
2023-04-16T02:37:02.180Z,1016.33
2023-04-16T02:38:02.211Z,1016.33
2023-04-16T02:39:02.285Z,1016.34
2023-04-16T02:40:02.665Z,1016.28
2023-04-16T02:41:02.345Z,1016.35
2023-04-16T02:42:02.408Z,1016.34
2023-04-16T02:43:02.353Z,1016.31
2023-04-16T02:44:02.384Z,1016.30
2023-04-16T02:45:02.410Z,1016.34
2023-04-16T02:46:02.454Z,1016.35
2023-04-16T02:47:02.767Z,1016.35
2023-04-16T02:48:02.599Z,1016.34
2023-04-16T02:49:02.528Z,1016.31
2023-04-16T02:50:02.550Z,1016.30
2023-04-16T02:51:02.582Z,1016.32
2023-04-16T02:52:02.632Z,1016.32
2023-04-16T02:53:02.667Z,1016.31
2023-04-16T02:54:02.918Z,1016.24
2023-04-16T02:55:02.703Z,1016.26
2023-04-16T02:56:02.740Z,1016.27
2023-04-16T02:58:02.783Z,1016.27
2023-04-16T02:59:02.814Z,1016.32
2023-04-16T03:00:02.847Z,1016.27
2023-04-16T03:01:03.215Z,1016.34
2023-04-16T03:02:02.938Z,1016.32
2023-04-16T03:03:02.974Z,1016.32
2023-04-16T03:04:02.995Z,1016.33
2023-04-16T03:06:03.007Z,1016.29
2023-04-16T03:07:03.047Z,1016.29
2023-04-16T03:08:03.475Z,1016.31
2023-04-16T03:09:03.103Z,1016.30
2023-04-16T03:10:03.128Z,1016.34
2023-04-16T03:11:03.158Z,1016.34
2023-04-16T03:12:03.178Z,1016.32
2023-04-16T03:13:03.221Z,1016.37
2023-04-16T03:14:03.243Z,1016.37
2023-04-16T03:15:03.619Z,1016.36
2023-04-16T03:16:03.416Z,1016.39
2023-04-16T03:17:03.341Z,1016.34
2023-04-16T03:18:03.567Z,1016.36
2023-04-16T03:19:03.395Z,1016.37
2023-04-16T03:20:03.408Z,1016.38
2023-04-16T03:21:03.439Z,1016.34
2023-04-16T03:22:03.727Z,1016.34
2023-04-16T03:23:03.501Z,1016.36
2023-04-16T03:25:03.624Z,1016.39
2023-04-16T03:26:03.647Z,1016.42
2023-04-16T03:27:03.613Z,1016.41
2023-04-16T03:28:03.697Z,1016.42
2023-04-16T03:29:03.918Z,1016.39
2023-04-16T03:30:03.716Z,1016.41
2023-04-16T03:31:03.870Z,1016.45
2023-04-16T03:32:03.756Z,1016.46
2023-04-16T03:33:03.780Z,1016.43
2023-04-16T03:34:03.869Z,1016.43
2023-04-16T03:35:03.844Z,1016.44
2023-04-16T03:36:04.115Z,1016.42
2023-04-16T03:37:03.895Z,1016.41
2023-04-16T03:38:03.921Z,1016.45
2023-04-16T03:39:03.958Z,1016.42
2023-04-16T03:40:03.980Z,1016.40
2023-04-16T03:41:04.028Z,1016.42
2023-04-16T03:42:04.049Z,1016.46
2023-04-16T03:43:04.423Z,1016.46
2023-04-16T03:44:04.113Z,1016.45
2023-04-16T03:46:04.151Z,1016.44
2023-04-16T03:47:04.283Z,1016.46
2023-04-16T03:48:04.205Z,1016.49
2023-04-16T03:49:04.235Z,1016.44
2023-04-16T03:50:04.663Z,1016.47
2023-04-16T03:51:04.288Z,1016.46
2023-04-16T03:52:04.326Z,1016.49
2023-04-16T03:53:04.348Z,1016.49
2023-04-16T03:54:04.378Z,1016.50
2023-04-16T03:55:04.410Z,1016.52
2023-04-16T03:56:04.735Z,1016.49
2023-04-16T03:57:04.490Z,1016.49
2023-04-16T03:58:04.503Z,1016.49
2023-04-16T03:59:04.524Z,1016.49
2023-04-16T04:00:04.582Z,1016.52
2023-04-16T04:01:04.578Z,1016.52
2023-04-16T04:02:05.011Z,1016.53
2023-04-16T04:03:04.785Z,1016.52
2023-04-16T04:04:04.921Z,1016.51
2023-04-16T04:05:04.815Z,1016.50
2023-04-16T04:06:04.715Z,1016.48
2023-04-16T04:07:04.744Z,1016.51
2023-04-16T04:08:05.077Z,1016.52
2023-04-16T04:09:04.811Z,1016.52
2023-04-16T04:10:04.836Z,1016.48
2023-04-16T04:11:04.862Z,1016.50
2023-04-16T04:12:04.989Z,1016.53
2023-04-16T04:13:04.955Z,1016.50
2023-04-16T04:15:05.283Z,1016.52
2023-04-16T04:16:05.022Z,1016.54
2023-04-16T04:17:05.033Z,1016.53
2023-04-16T04:18:05.085Z,1016.50
2023-04-16T04:20:05.122Z,1016.52
2023-04-16T04:21:05.157Z,1016.56
2023-04-16T04:22:05.473Z,1016.54
2023-04-16T04:23:05.254Z,1016.54
2023-04-16T04:24:05.241Z,1016.51
2023-04-16T04:25:05.265Z,1016.55
2023-04-16T04:26:05.353Z,1016.57
2023-04-16T04:27:05.322Z,1016.58
2023-04-16T04:28:05.351Z,1016.56
2023-04-16T04:29:05.708Z,1016.60
2023-04-16T04:30:05.457Z,1016.58
2023-04-16T04:31:05.436Z,1016.58
2023-04-16T04:32:05.502Z,1016.60
2023-04-16T04:33:05.531Z,1016.61
2023-04-16T04:34:05.529Z,1016.63
2023-04-16T04:35:05.546Z,1016.63
2023-04-16T04:37:05.858Z,1016.67
2023-04-16T04:38:05.633Z,1016.65
2023-04-16T04:39:05.662Z,1016.62
2023-04-16T04:40:05.698Z,1016.64
2023-04-16T04:41:05.739Z,1016.68
2023-04-16T04:42:05.748Z,1016.67
2023-04-16T04:43:05.772Z,1016.68
2023-04-16T04:44:06.102Z,1016.69
2023-04-16T04:45:05.950Z,1016.66
2023-04-16T04:47:05.888Z,1016.70
2023-04-16T04:48:05.912Z,1016.68
2023-04-16T04:50:06.274Z,1016.73
2023-04-16T04:51:06.004Z,1016.78
2023-04-16T04:52:06.049Z,1016.74
2023-04-16T04:53:06.155Z,1016.73
2023-04-16T04:54:06.083Z,1016.77
2023-04-16T04:55:06.216Z,1016.76
2023-04-16T04:56:12.299Z,1016.76
2023-04-16T04:57:06.513Z,1016.76
2023-04-16T04:58:06.202Z,1016.78
2023-04-16T04:59:06.255Z,1016.80
2023-04-16T05:00:06.255Z,1016.84
2023-04-16T05:02:06.500Z,1016.84
2023-04-16T05:03:06.416Z,1016.82
2023-04-16T05:04:06.717Z,1016.84
2023-04-16T05:06:06.435Z,1016.84
2023-04-16T05:07:06.466Z,1016.87
2023-04-16T05:08:06.594Z,1016.87
2023-04-16T05:09:06.523Z,1016.89
2023-04-16T05:10:06.542Z,1016.87
2023-04-16T05:11:06.967Z,1016.86
2023-04-16T05:12:06.603Z,1016.87
2023-04-16T05:13:06.631Z,1016.88
2023-04-16T05:14:06.679Z,1016.91
2023-04-16T05:15:06.696Z,1016.92
2023-04-16T05:16:06.712Z,1016.96
2023-04-16T05:17:06.782Z,1016.93
2023-04-16T05:18:07.092Z,1016.93
2023-04-16T05:19:06.944Z,1016.95
2023-04-16T05:20:06.936Z,1016.97
2023-04-16T05:21:06.875Z,1017.01
2023-04-16T05:22:06.893Z,1016.99
2023-04-16T05:23:06.918Z,1017.03
2023-04-16T05:24:06.945Z,1017.00
2023-04-16T05:25:07.273Z,1017.03
2023-04-16T05:26:06.995Z,1017.07
2023-04-16T05:27:07.034Z,1017.06
2023-04-16T05:28:07.066Z,1017.03
2023-04-16T05:29:07.209Z,1017.09
2023-04-16T05:31:07.198Z,1017.14
2023-04-16T05:32:07.420Z,1017.11
2023-04-16T05:33:07.223Z,1017.09
2023-04-16T05:35:07.270Z,1017.10
2023-04-16T05:36:07.283Z,1017.13
2023-04-16T05:37:07.323Z,1017.13
2023-04-16T05:40:07.699Z,1017.10
2023-04-16T05:41:07.439Z,1017.18
2023-04-16T05:42:07.449Z,1017.13
2023-04-16T05:43:07.477Z,1017.20
2023-04-16T05:44:07.550Z,1017.20
2023-04-16T05:45:07.544Z,1017.18
2023-04-16T05:46:07.629Z,1017.20
2023-04-16T05:47:07.894Z,1017.21
2023-04-16T05:48:07.627Z,1017.23
2023-04-16T05:49:07.940Z,1017.18
2023-04-16T05:50:07.709Z,1017.26
2023-04-16T05:51:07.738Z,1017.27
2023-04-16T05:52:07.753Z,1017.24
2023-04-16T05:53:07.873Z,1017.18
2023-04-16T05:54:07.788Z,1017.21
2023-04-16T05:55:07.828Z,1017.24
2023-04-16T05:57:07.876Z,1017.25
2023-04-16T05:58:07.902Z,1017.27
2023-04-16T05:59:08.266Z,1017.28
2023-04-16T06:00:08.270Z,1017.27
2023-04-16T06:01:07.992Z,1017.30
2023-04-16T06:02:08.079Z,1017.31
2023-04-16T06:03:08.286Z,1017.34
2023-04-16T06:04:08.193Z,1017.31
2023-04-16T06:05:08.132Z,1017.35
2023-04-16T06:07:08.479Z,1017.31
2023-04-16T06:08:08.203Z,1017.35
2023-04-16T06:09:08.502Z,1017.36
2023-04-16T06:10:08.244Z,1017.35
2023-04-16T06:11:08.274Z,1017.36
2023-04-16T06:12:08.306Z,1017.34
2023-04-16T06:13:08.648Z,1017.34
2023-04-16T06:15:08.402Z,1017.36
2023-04-16T06:16:08.449Z,1017.37
2023-04-16T06:17:08.444Z,1017.35
2023-04-16T06:18:08.577Z,1017.36
2023-04-16T06:19:09.064Z,1017.40
2023-04-16T06:21:08.568Z,1017.41
2023-04-16T06:22:08.600Z,1017.41
2023-04-16T06:23:08.635Z,1017.37
2023-04-16T06:24:08.642Z,1017.40
2023-04-16T06:25:08.670Z,1017.46
2023-04-16T06:26:09.009Z,1017.43
2023-04-16T06:27:08.737Z,1017.45
2023-04-16T06:28:08.756Z,1017.43
2023-04-16T06:29:09.125Z,1017.44
2023-04-16T06:30:08.816Z,1017.47
2023-04-16T06:31:08.933Z,1017.47
2023-04-16T06:32:08.871Z,1017.49
2023-04-16T06:35:09.354Z,1017.51
2023-04-16T06:36:08.988Z,1017.50
2023-04-16T06:38:09.044Z,1017.53
2023-04-16T06:39:09.488Z,1017.51
2023-04-16T06:40:09.114Z,1017.53
2023-04-16T06:41:09.450Z,1017.57
2023-04-16T06:42:09.196Z,1017.56
2023-04-16T06:43:09.187Z,1017.58
2023-04-16T06:44:09.215Z,1017.59
2023-04-16T06:45:09.256Z,1017.58
2023-04-16T06:46:09.266Z,1017.58
2023-04-16T06:47:09.761Z,1017.56
2023-04-16T06:49:09.603Z,1017.59
2023-04-16T06:50:09.387Z,1017.59
2023-04-16T06:52:09.438Z,1017.57
2023-04-16T06:54:09.508Z,1017.59
2023-04-16T06:55:09.886Z,1017.60
2023-04-16T06:56:09.555Z,1017.60
2023-04-16T06:57:09.586Z,1017.66
2023-04-16T06:59:09.943Z,1017.64
2023-04-16T07:00:09.671Z,1017.70
2023-04-16T07:01:09.721Z,1017.69
2023-04-16T07:02:10.081Z,1017.67
2023-04-16T07:03:10.010Z,1017.64
2023-04-16T07:04:09.911Z,1017.66
2023-04-16T07:06:09.836Z,1017.70
2023-04-16T07:07:09.866Z,1017.68
2023-04-16T07:09:10.399Z,1017.70
2023-04-16T07:11:10.003Z,1017.69
2023-04-16T07:12:10.017Z,1017.76
2023-04-16T07:13:10.041Z,1017.75
2023-04-16T07:14:10.081Z,1017.75
2023-04-16T07:15:10.094Z,1017.78
2023-04-16T07:16:10.450Z,1017.77
2023-04-16T07:17:10.150Z,1017.78
2023-04-16T07:18:10.209Z,1017.77
2023-04-16T07:20:10.369Z,1017.81
2023-04-16T07:21:10.271Z,1017.83
2023-04-16T07:22:10.303Z,1017.80
2023-04-16T07:24:10.653Z,1017.80
2023-04-16T07:27:10.481Z,1017.82
2023-04-16T07:28:10.563Z,1017.80
2023-04-16T07:29:10.600Z,1017.78
2023-04-16T07:30:10.631Z,1017.81
2023-04-16T07:31:10.856Z,1017.79
2023-04-16T07:33:10.674Z,1017.78
2023-04-16T07:34:10.783Z,1017.79
2023-04-16T07:35:10.666Z,1017.81
2023-04-16T07:36:10.696Z,1017.81
2023-04-16T07:37:10.724Z,1017.82
2023-04-16T07:39:11.303Z,1017.85
2023-04-16T07:40:10.827Z,1017.87
2023-04-16T07:41:10.843Z,1017.85
2023-04-16T07:42:10.965Z,1017.88
2023-04-16T07:43:11.054Z,1017.91
2023-04-16T07:45:11.250Z,1017.89
2023-04-16T07:46:11.023Z,1017.90
2023-04-16T07:47:11.014Z,1017.94
2023-04-16T07:48:11.071Z,1017.96
2023-04-16T07:49:11.365Z,1017.97
2023-04-16T07:54:11.209Z,1018.04
2023-04-16T07:55:11.249Z,1018.04
2023-04-16T07:56:11.291Z,1018.05
2023-04-16T07:57:11.297Z,1018.07
2023-04-16T08:01:11.407Z,1018.03
2023-04-16T08:04:11.655Z,1018.03
2023-04-16T08:05:11.576Z,1018.06
2023-04-16T08:06:11.902Z,1018.07
2023-04-16T08:07:11.582Z,1018.09
2023-04-16T08:08:11.608Z,1018.04
2023-04-16T08:09:11.795Z,1018.09
2023-04-16T08:10:11.666Z,1018.09
2023-04-16T08:11:11.693Z,1018.13
2023-04-16T08:12:11.728Z,1018.13
2023-04-16T08:13:12.052Z,1018.18
2023-04-16T08:14:11.795Z,1018.21
2023-04-16T08:15:11.837Z,1018.20
2023-04-16T08:16:11.931Z,1018.21
2023-04-16T08:18:11.897Z,1018.22
2023-04-16T08:19:12.042Z,1018.23
2023-04-16T08:20:15.183Z,1018.21
2023-04-16T08:21:12.084Z,1018.23
2023-04-16T08:22:12.018Z,1018.27
2023-04-16T08:23:12.039Z,1018.34
2023-04-16T08:24:12.064Z,1018.35
2023-04-16T08:25:12.112Z,1018.36
2023-04-16T08:26:12.140Z,1018.41
2023-04-16T08:27:18.644Z,1018.42
2023-04-16T08:28:12.195Z,1018.43
2023-04-16T08:29:12.478Z,1018.43
2023-04-16T08:31:12.373Z,1018.49
2023-04-16T08:32:12.297Z,1018.49
2023-04-16T08:33:12.367Z,1018.46
2023-04-16T08:35:12.393Z,1018.48
2023-04-16T08:36:12.416Z,1018.49
2023-04-16T08:38:12.481Z,1018.52
2023-04-16T08:39:12.807Z,1018.55
2023-04-16T08:40:12.541Z,1018.61
2023-04-16T08:41:12.871Z,1018.60
2023-04-16T08:42:12.598Z,1018.64
2023-04-16T08:44:12.648Z,1018.57
2023-04-16T08:45:12.676Z,1018.61
2023-04-16T08:46:12.870Z,1018.61
2023-04-16T08:47:12.790Z,1018.62
2023-04-16T08:48:13.024Z,1018.61
2023-04-16T08:49:12.878Z,1018.60
2023-04-16T08:50:12.820Z,1018.64
2023-04-16T08:51:12.859Z,1018.57
2023-04-16T08:52:12.985Z,1018.55
2023-04-16T08:53:12.925Z,1018.60
2023-04-16T08:56:13.284Z,1018.72
2023-04-16T08:57:13.027Z,1018.65
2023-04-16T08:59:13.096Z,1018.71
2023-04-16T09:00:13.122Z,1018.67
2023-04-16T09:01:13.142Z,1018.67
2023-04-16T09:02:13.241Z,1018.69
2023-04-16T09:03:13.605Z,1018.70
2023-04-16T09:04:13.408Z,1018.65
2023-04-16T09:05:13.263Z,1018.68
2023-04-16T09:06:13.293Z,1018.70
2023-04-16T09:07:13.317Z,1018.68
2023-04-16T09:08:13.370Z,1018.59
2023-04-16T09:09:13.375Z,1018.67
2023-04-16T09:10:13.712Z,1018.67
2023-04-16T09:12:13.467Z,1018.68
2023-04-16T09:13:13.528Z,1018.69
2023-04-16T09:14:13.529Z,1018.71
2023-04-16T09:15:14.255Z,1018.74
2023-04-16T09:16:13.651Z,1018.77
2023-04-16T09:17:13.916Z,1018.78
2023-04-16T09:18:13.688Z,1018.72
2023-04-16T09:19:13.691Z,1018.78
2023-04-16T09:20:13.698Z,1018.73
2023-04-16T09:21:13.741Z,1018.73
2023-04-16T09:22:13.757Z,1018.74
2023-04-16T09:23:13.808Z,1018.78
2023-04-16T09:24:14.067Z,1018.74
2023-04-16T09:25:13.872Z,1018.75
2023-04-16T09:26:13.884Z,1018.81
2023-04-16T09:27:13.913Z,1018.83
2023-04-16T09:30:13.992Z,1018.83
2023-04-16T09:31:14.277Z,1018.87
2023-04-16T09:32:14.159Z,1018.87
2023-04-16T09:33:14.105Z,1018.87
2023-04-16T09:34:14.124Z,1018.89
2023-04-16T09:35:14.160Z,1018.86
2023-04-16T09:36:14.220Z,1018.90
2023-04-16T09:37:14.502Z,1018.90
2023-04-16T09:39:14.269Z,1018.91
2023-04-16T09:40:14.293Z,1018.96
2023-04-16T09:41:14.325Z,1018.92
2023-04-16T09:42:14.350Z,1018.96
2023-04-16T09:43:14.685Z,1019.00
2023-04-16T09:44:14.417Z,1018.96
2023-04-16T09:45:14.445Z,1018.99
2023-04-16T09:46:14.511Z,1018.95
2023-04-16T09:47:14.508Z,1018.94
2023-04-16T09:48:14.533Z,1018.94
2023-04-16T09:49:14.856Z,1018.97
2023-04-16T09:50:16.403Z,1018.93
2023-04-16T09:51:14.637Z,1018.96
2023-04-16T09:52:14.648Z,1019.01
2023-04-16T09:53:14.681Z,1018.95
2023-04-16T09:54:14.719Z,1018.97
2023-04-16T09:55:14.749Z,1019.01
2023-04-16T09:56:15.041Z,1019.00
2023-04-16T09:57:14.844Z,1018.99
2023-04-16T09:58:14.823Z,1019.02
2023-04-16T09:59:14.863Z,1018.96
2023-04-16T10:00:14.882Z,1018.94
2023-04-16T10:01:14.924Z,1018.96
2023-04-16T10:02:16.433Z,1018.98
2023-04-16T10:03:15.382Z,1018.98
2023-04-16T10:04:15.058Z,1019.03
2023-04-16T10:05:15.035Z,1018.97
2023-04-16T10:06:15.068Z,1019.02
2023-04-16T10:07:15.127Z,1018.95
2023-04-16T10:08:15.120Z,1018.97
2023-04-16T10:09:15.153Z,1018.96
2023-04-16T10:10:15.433Z,1018.98
2023-04-16T10:11:15.218Z,1019.05
2023-04-16T10:12:15.249Z,1019.07
2023-04-16T10:13:15.279Z,1019.07
2023-04-16T10:14:15.307Z,1019.10
2023-04-16T10:15:15.348Z,1019.08
2023-04-16T10:16:15.410Z,1019.07
2023-04-16T10:17:15.713Z,1019.02
2023-04-16T10:18:15.422Z,1019.07
2023-04-16T10:19:15.459Z,1019.06
2023-04-16T10:20:16.731Z,1019.05
2023-04-16T10:21:15.609Z,1019.11
2023-04-16T10:22:15.536Z,1019.12
2023-04-16T10:23:15.645Z,1019.13
2023-04-16T10:24:15.861Z,1019.13
2023-04-16T10:25:15.634Z,1019.16
2023-04-16T10:26:15.662Z,1019.15
2023-04-16T10:27:15.688Z,1019.15
2023-04-16T10:28:15.724Z,1019.08
2023-04-16T10:29:15.748Z,1019.05
2023-04-16T10:30:15.775Z,1019.06
2023-04-16T10:31:16.173Z,1019.05
2023-04-16T10:32:15.879Z,1019.08
2023-04-16T10:33:15.877Z,1019.06
2023-04-16T10:34:15.895Z,1019.07
2023-04-16T10:35:15.931Z,1019.02
2023-04-16T10:36:15.980Z,1019.05
2023-04-16T10:37:15.989Z,1019.03
2023-04-16T10:38:16.263Z,1019.05
2023-04-16T10:40:16.098Z,1019.08
2023-04-16T10:41:16.112Z,1019.03
2023-04-16T10:42:16.134Z,1019.05
2023-04-16T10:43:16.275Z,1019.00
2023-04-16T10:45:16.539Z,1018.99
2023-04-16T10:46:16.300Z,1019.01
2023-04-16T10:47:16.283Z,1019.07
2023-04-16T10:48:16.315Z,1019.04
2023-04-16T10:49:16.355Z,1019.02
2023-04-16T10:50:16.383Z,1019.05
2023-04-16T10:51:16.406Z,1019.10
2023-04-16T10:52:16.730Z,1019.10
2023-04-16T10:53:16.477Z,1019.08
2023-04-16T10:54:16.490Z,1019.07
2023-04-16T10:55:16.523Z,1019.09
2023-04-16T10:56:16.569Z,1019.11
2023-04-16T10:57:16.581Z,1019.08
2023-04-16T10:58:16.609Z,1019.09
2023-04-16T10:59:16.942Z,1019.00
2023-04-16T11:00:16.840Z,1019.04
2023-04-16T11:01:17.234Z,1019.06
2023-04-16T11:03:16.946Z,1019.00
2023-04-16T11:04:16.936Z,1019.02
2023-04-16T11:05:16.825Z,1019.08
2023-04-16T11:06:17.252Z,1019.11
2023-04-16T11:07:17.039Z,1019.12
2023-04-16T11:08:16.905Z,1019.23
2023-04-16T11:09:16.940Z,1019.22
2023-04-16T11:10:16.971Z,1019.25
2023-04-16T11:11:17.000Z,1019.23
2023-04-16T11:12:17.055Z,1019.16
2023-04-16T11:13:17.359Z,1019.19
2023-04-16T11:14:17.107Z,1019.17
2023-04-16T11:16:17.185Z,1019.13
2023-04-16T11:17:17.186Z,1019.21
2023-04-16T11:18:17.209Z,1019.21
2023-04-16T11:19:17.240Z,1019.21
2023-04-16T11:20:20.476Z,1019.20
2023-04-16T11:21:17.301Z,1019.24
2023-04-16T11:22:17.468Z,1019.24
2023-04-16T11:23:17.364Z,1019.26
2023-04-16T11:24:17.387Z,1019.23
2023-04-16T11:25:17.428Z,1019.14
2023-04-16T11:26:19.709Z,1019.10
2023-04-16T11:27:17.898Z,1019.02
2023-04-16T11:28:17.810Z,1018.99
2023-04-16T11:29:17.946Z,1019.00
2023-04-16T11:30:17.836Z,1019.00
2023-04-16T11:31:17.963Z,1019.01
2023-04-16T11:32:17.992Z,1019.07
2023-04-16T11:33:17.764Z,1019.13
2023-04-16T11:34:17.696Z,1019.10
2023-04-16T11:35:17.727Z,1019.10
2023-04-16T11:36:17.753Z,1019.05
2023-04-16T11:40:18.181Z,1019.07
2023-04-16T11:41:17.910Z,1019.04
2023-04-16T11:42:18.128Z,1019.03
2023-04-16T11:43:17.972Z,1019.08
2023-04-16T11:44:18.070Z,1019.08
2023-04-16T11:45:18.030Z,1019.11
2023-04-16T11:46:27.382Z,1019.17
2023-04-16T11:48:18.350Z,1019.11
2023-04-16T11:49:18.147Z,1019.15
2023-04-16T11:50:18.192Z,1019.12
2023-04-16T11:51:18.215Z,1019.13
2023-04-16T11:52:18.545Z,1019.16
2023-04-16T11:54:18.298Z,1019.20
2023-04-16T11:55:18.348Z,1019.15
2023-04-16T11:56:18.375Z,1019.17
2023-04-16T11:57:18.395Z,1019.17
2023-04-16T11:58:18.425Z,1019.16
2023-04-16T11:59:18.759Z,1019.16
2023-04-16T12:00:18.508Z,1019.15
2023-04-16T12:02:18.667Z,1019.05
2023-04-16T12:03:18.909Z,1019.08
2023-04-16T12:04:18.760Z,1019.06
2023-04-16T12:05:18.636Z,1019.07
2023-04-16T12:06:18.921Z,1019.10
2023-04-16T12:07:18.749Z,1019.08
2023-04-16T12:08:18.733Z,1019.08
2023-04-16T12:09:18.769Z,1019.09
2023-04-16T12:10:18.804Z,1019.12
2023-04-16T12:11:18.818Z,1019.16
2023-04-16T12:13:19.188Z,1019.29
2023-04-16T12:14:18.917Z,1019.32
2023-04-16T12:15:18.949Z,1019.28
2023-04-16T12:16:19.045Z,1019.30
2023-04-16T12:17:19.116Z,1019.27
2023-04-16T12:18:19.054Z,1019.35
2023-04-16T12:19:19.087Z,1019.36
2023-04-16T12:20:19.395Z,1019.30
2023-04-16T12:21:19.137Z,1019.30
2023-04-16T12:22:19.161Z,1019.28
2023-04-16T12:23:19.199Z,1019.27
2023-04-16T12:24:19.215Z,1019.21
2023-04-16T12:26:19.577Z,1019.13
2023-04-16T12:27:19.322Z,1019.18
2023-04-16T12:28:19.338Z,1019.21
2023-04-16T12:31:19.451Z,1019.21
2023-04-16T12:32:19.492Z,1019.20
2023-04-16T12:33:19.748Z,1019.22
2023-04-16T12:34:19.532Z,1019.24
2023-04-16T12:35:19.586Z,1019.22
2023-04-16T12:36:19.673Z,1019.25
2023-04-16T12:37:19.623Z,1019.28
2023-04-16T12:39:19.984Z,1019.28
2023-04-16T12:40:19.721Z,1019.34
2023-04-16T12:41:19.741Z,1019.31
2023-04-16T12:42:19.770Z,1019.34
2023-04-16T12:43:19.940Z,1019.41
2023-04-16T12:44:19.838Z,1019.41
2023-04-16T12:45:20.180Z,1019.37
2023-04-16T12:46:19.960Z,1019.37
2023-04-16T12:47:19.970Z,1019.35
2023-04-16T12:48:20.015Z,1019.35
2023-04-16T12:49:20.045Z,1019.15
2023-04-16T12:50:20.016Z,1019.22
2023-04-16T12:51:20.357Z,1019.29
2023-04-16T12:52:21.144Z,1019.27
2023-04-16T12:54:20.152Z,1019.20
2023-04-16T12:55:20.396Z,1019.23
2023-04-16T12:56:20.216Z,1019.18
2023-04-16T12:57:20.238Z,1019.14
2023-04-16T12:59:20.694Z,1019.16
2023-04-16T13:00:20.327Z,1019.21
2023-04-16T13:01:20.438Z,1019.28
2023-04-16T13:02:20.536Z,1019.23
2023-04-16T13:03:20.662Z,1019.20
2023-04-16T13:04:21.962Z,1019.15
2023-04-16T13:05:20.799Z,1019.18
2023-04-16T13:06:20.568Z,1019.21
2023-04-16T13:07:20.553Z,1019.22
2023-04-16T13:08:20.665Z,1019.21
2023-04-16T13:09:20.725Z,1019.20
2023-04-16T13:11:20.677Z,1019.16
2023-04-16T13:12:21.001Z,1019.12
2023-04-16T13:13:20.730Z,1019.27
2023-04-16T13:14:20.768Z,1019.28
2023-04-16T13:15:20.796Z,1019.13
2023-04-16T13:16:20.887Z,1019.09
2023-04-16T13:17:20.882Z,1019.18
2023-04-16T13:18:20.924Z,1019.23
2023-04-16T13:19:21.237Z,1019.17
2023-04-16T13:20:23.924Z,1019.11
2023-04-16T13:21:20.991Z,1019.12
2023-04-16T13:22:21.016Z,1019.05
2023-04-16T13:23:21.040Z,1019.08
2023-04-16T13:24:21.071Z,1019.09
2023-04-16T13:25:21.109Z,1019.04
2023-04-16T13:26:21.140Z,1019.05
2023-04-16T13:27:21.170Z,1019.04
2023-04-16T13:28:21.201Z,1019.06
2023-04-16T13:29:21.233Z,1019.09
2023-04-16T13:30:21.264Z,1019.17
2023-04-16T13:31:21.313Z,1019.17
2023-04-16T13:32:21.594Z,1019.16
2023-04-16T13:33:21.354Z,1019.13
2023-04-16T13:36:21.470Z,1019.15
2023-04-16T13:37:21.507Z,1019.09
2023-04-16T13:38:21.511Z,1019.10
2023-04-16T13:39:21.839Z,1019.15
2023-04-16T13:41:21.601Z,1019.12
2023-04-16T13:42:21.733Z,1019.11
2023-04-16T13:43:21.662Z,1019.12